createdAt,value
2024-02-29T00:00:45.637Z,8.48
2024-02-29T00:01:47.480Z,8.35
2024-02-29T00:02:49.083Z,8.32
2024-02-29T00:03:51.066Z,7.70
2024-02-29T00:04:52.589Z,7.93
2024-02-29T00:05:55.226Z,8.00
2024-02-29T00:06:56.869Z,8.30
2024-02-29T00:07:58.432Z,8.88
2024-02-29T00:09:00.058Z,8.38
2024-02-29T00:10:01.680Z,8.05
2024-02-29T00:11:03.809Z,8.48
2024-02-29T00:12:06.231Z,8.10
2024-02-29T00:13:07.815Z,7.60
2024-02-29T00:14:09.918Z,9.02
2024-02-29T00:15:12.046Z,8.82
2024-02-29T00:16:14.702Z,8.93
2024-02-29T00:17:16.770Z,8.98
2024-02-29T00:18:18.285Z,8.50
2024-02-29T00:19:21.131Z,8.32
2024-02-29T00:20:22.678Z,8.15
2024-02-29T00:21:24.471Z,8.85
2024-02-29T00:22:26.017Z,8.70
2024-02-29T00:23:27.516Z,8.15
2024-02-29T00:24:29.578Z,9.43
2024-02-29T00:25:31.271Z,9.40
2024-02-29T00:26:32.767Z,8.27
2024-02-29T00:27:34.471Z,8.38
2024-02-29T00:28:36.081Z,8.77
2024-02-29T00:29:39.751Z,7.72
2024-02-29T00:30:41.328Z,9.00
2024-02-29T00:31:44.719Z,8.48
2024-02-29T00:32:47.527Z,8.32
2024-02-29T00:33:49.156Z,8.27
2024-02-29T00:34:51.139Z,8.35
2024-02-29T00:36:02.215Z,8.30
2024-02-29T00:37:06.622Z,8.63
2024-02-29T00:38:08.176Z,8.57
2024-02-29T00:39:14.830Z,8.30
2024-02-29T00:40:17.383Z,8.52
2024-02-29T00:41:19.016Z,8.32
2024-02-29T00:42:20.531Z,9.43
2024-02-29T00:43:22.014Z,8.75
2024-02-29T00:44:23.522Z,9.27
2024-02-29T00:45:25.112Z,9.48
2024-02-29T00:46:26.611Z,8.60
2024-02-29T00:47:28.147Z,8.70
2024-02-29T00:48:29.781Z,8.82
2024-02-29T00:49:32.110Z,7.97
2024-02-29T00:50:34.144Z,8.80
2024-02-29T00:51:35.793Z,8.45
2024-02-29T00:52:39.138Z,9.48
2024-02-29T00:53:40.777Z,8.93
2024-02-29T00:54:42.920Z,7.80
2024-02-29T00:55:44.787Z,8.82
2024-02-29T00:56:46.415Z,8.90
2024-02-29T00:57:50.933Z,8.82
2024-02-29T00:58:52.523Z,9.20
2024-02-29T00:59:54.392Z,9.82
2024-02-29T01:00:56.088Z,9.45
2024-02-29T01:01:57.950Z,9.25
2024-02-29T01:02:59.521Z,8.65
2024-02-29T01:04:01.138Z,8.38
2024-02-29T01:05:03.014Z,8.75
2024-02-29T01:06:05.628Z,9.82
2024-02-29T01:07:07.757Z,9.65
2024-02-29T01:08:09.655Z,8.73
2024-02-29T01:09:11.186Z,9.23
2024-02-29T01:10:16.110Z,9.13
2024-02-29T01:11:17.742Z,9.18
2024-02-29T01:12:19.450Z,8.95
2024-02-29T01:13:20.995Z,8.90
2024-02-29T01:14:22.565Z,9.45
2024-02-29T01:15:24.488Z,8.52
2024-02-29T01:16:26.234Z,9.40
2024-02-29T01:17:27.792Z,9.52
2024-02-29T01:18:29.356Z,10.43
2024-02-29T01:19:30.877Z,9.05
2024-02-29T01:20:34.063Z,9.82
2024-02-29T01:21:35.590Z,9.85
2024-02-29T01:22:37.115Z,10.60
2024-02-29T01:23:38.651Z,9.95
2024-02-29T01:24:40.164Z,9.30
2024-02-29T01:25:41.886Z,8.50
2024-02-29T01:26:43.460Z,9.68
2024-02-29T01:27:45.035Z,9.20
2024-02-29T01:28:46.533Z,9.98
2024-02-29T01:29:48.091Z,8.35
2024-02-29T01:30:50.507Z,8.57
2024-02-29T01:31:52.152Z,10.48
2024-02-29T01:32:53.776Z,9.27
2024-02-29T01:33:55.416Z,9.63
2024-02-29T01:34:57.144Z,9.35
2024-02-29T01:35:58.765Z,10.70
2024-02-29T01:37:00.290Z,9.88
2024-02-29T01:38:01.828Z,10.52
2024-02-29T01:39:04.162Z,10.18
2024-02-29T01:40:06.635Z,9.70
2024-02-29T01:41:08.487Z,10.57
2024-02-29T01:42:11.318Z,10.20
2024-02-29T01:43:12.916Z,9.38
2024-02-29T01:44:14.457Z,9.77
2024-02-29T01:45:18.152Z,9.68
2024-02-29T01:46:19.842Z,10.38
2024-02-29T01:47:24.935Z,9.68
2024-02-29T01:48:26.566Z,10.82
2024-02-29T01:49:28.750Z,10.10
2024-02-29T01:50:30.777Z,10.93
2024-02-29T01:51:32.522Z,9.63
2024-02-29T01:52:35.306Z,9.40
2024-02-29T01:53:36.860Z,9.45
2024-02-29T01:54:40.166Z,10.73
2024-02-29T01:55:42.149Z,10.25
2024-02-29T01:56:43.825Z,10.82
2024-02-29T01:57:45.430Z,10.20
2024-02-29T01:58:47.090Z,10.65
2024-02-29T01:59:50.111Z,9.80
2024-02-29T02:01:54.487Z,10.02
2024-02-29T02:02:56.762Z,10.23
2024-02-29T02:03:58.395Z,10.13
2024-02-29T02:04:59.984Z,9.93
2024-02-29T02:06:01.955Z,12.07
2024-02-29T02:07:04.726Z,11.75
2024-02-29T02:08:06.681Z,10.43
2024-02-29T02:09:08.260Z,9.57
2024-02-29T02:10:12.914Z,10.38
2024-02-29T02:11:14.853Z,9.90
2024-02-29T02:12:16.446Z,10.68
2024-02-29T02:13:17.978Z,8.95
2024-02-29T02:14:20.189Z,11.43
2024-02-29T02:15:22.412Z,10.48
2024-02-29T02:16:23.961Z,10.90
2024-02-29T02:17:25.451Z,11.15
2024-02-29T02:18:27.077Z,10.95
2024-02-29T02:19:28.609Z,10.43
2024-02-29T02:20:30.506Z,11.10
2024-02-29T02:21:32.064Z,10.93
2024-02-29T02:22:33.570Z,10.32
2024-02-29T02:23:35.102Z,11.55
2024-02-29T02:24:36.792Z,11.60
2024-02-29T02:25:38.377Z,11.35
2024-02-29T02:26:40.012Z,11.52
2024-02-29T02:27:41.632Z,12.07
2024-02-29T02:28:43.496Z,11.05
2024-02-29T02:29:44.985Z,10.90
2024-02-29T02:30:46.863Z,10.82
2024-02-29T02:31:48.407Z,10.85
2024-02-29T02:32:50.039Z,11.32
2024-02-29T02:33:51.577Z,12.25
2024-02-29T02:34:53.079Z,10.90
2024-02-29T02:35:54.622Z,11.60
2024-02-29T02:36:56.126Z,11.48
2024-02-29T02:37:57.637Z,10.23
2024-02-29T02:38:59.252Z,11.50
2024-02-29T02:40:01.074Z,11.52
2024-02-29T02:41:03.064Z,11.40
2024-02-29T02:42:04.909Z,11.45
2024-02-29T02:43:06.762Z,10.90
2024-02-29T02:44:08.299Z,11.63
2024-02-29T02:45:10.131Z,11.23
2024-02-29T02:46:12.568Z,12.05
2024-02-29T02:47:14.133Z,11.55
2024-02-29T02:48:15.630Z,10.98
2024-02-29T02:49:17.281Z,10.38
2024-02-29T02:50:18.819Z,11.15
2024-02-29T02:51:20.356Z,11.68
2024-02-29T02:52:22.047Z,12.15
2024-02-29T02:53:23.616Z,11.85
2024-02-29T02:54:25.133Z,11.40
2024-02-29T02:55:27.119Z,11.23
2024-02-29T02:56:28.632Z,11.57
2024-02-29T02:57:30.282Z,11.48
2024-02-29T02:58:31.828Z,11.70
2024-02-29T02:59:33.417Z,11.68
2024-02-29T03:00:35.367Z,11.43
2024-02-29T03:01:37.816Z,10.88
2024-02-29T03:02:41.185Z,11.10
2024-02-29T03:03:42.807Z,11.35
2024-02-29T03:04:44.324Z,11.07
2024-02-29T03:05:46.182Z,11.38
2024-02-29T03:06:48.304Z,10.70
2024-02-29T03:07:50.518Z,11.00
2024-02-29T03:08:52.765Z,10.38
2024-02-29T03:09:54.479Z,11.02
2024-02-29T03:10:56.364Z,10.10
2024-02-29T03:11:57.864Z,11.50
2024-02-29T03:12:59.397Z,11.13
2024-02-29T03:14:01.288Z,10.70
2024-02-29T03:15:02.802Z,11.98
2024-02-29T03:16:05.100Z,12.27
2024-02-29T03:17:06.643Z,10.93
2024-02-29T03:18:08.914Z,10.35
2024-02-29T03:19:10.650Z,10.77
2024-02-29T03:20:14.419Z,11.90
2024-02-29T03:21:16.667Z,12.18
2024-02-29T03:22:18.216Z,11.70
2024-02-29T03:23:21.294Z,11.85
2024-02-29T03:27:27.828Z,9.38
2024-02-29T03:28:29.345Z,9.95
2024-02-29T03:29:32.760Z,10.77
2024-02-29T03:30:34.361Z,10.27
2024-02-29T03:31:36.579Z,10.35
2024-02-29T03:32:38.165Z,11.13
2024-02-29T03:33:39.802Z,10.55
2024-02-29T03:34:41.448Z,9.82
2024-02-29T03:35:42.932Z,9.75
2024-02-29T03:36:44.538Z,10.18
2024-02-29T03:37:46.051Z,10.57
2024-02-29T03:38:48.269Z,11.25
2024-02-29T03:39:49.894Z,10.90
2024-02-29T03:40:52.963Z,9.95
2024-02-29T03:42:56.291Z,10.52
2024-02-29T03:43:57.838Z,10.65
2024-02-29T03:44:59.340Z,10.65
2024-02-29T03:46:00.866Z,10.30
2024-02-29T03:47:02.393Z,10.80
2024-02-29T03:48:04.106Z,10.68
2024-02-29T03:49:05.754Z,11.00
2024-02-29T03:50:07.683Z,11.75
2024-02-29T03:51:09.997Z,10.40
2024-02-29T03:52:11.730Z,10.63
2024-02-29T03:53:13.375Z,10.27
2024-02-29T03:54:14.914Z,10.05
2024-02-29T03:55:16.501Z,11.57
2024-02-29T03:56:18.617Z,11.65
2024-02-29T03:57:20.178Z,9.50
2024-02-29T03:58:21.760Z,10.25
2024-02-29T03:59:23.292Z,11.85
2024-02-29T04:00:24.804Z,10.38
2024-02-29T04:01:26.840Z,10.77
2024-02-29T04:02:29.165Z,11.27
2024-02-29T04:03:30.786Z,10.77
2024-02-29T04:04:32.352Z,11.43
2024-02-29T04:05:33.867Z,10.95
2024-02-29T04:06:35.471Z,10.70
2024-02-29T04:07:41.899Z,11.23
2024-02-29T04:08:43.423Z,10.40
2024-02-29T04:09:44.940Z,11.73
2024-02-29T04:10:49.770Z,11.07
2024-02-29T04:11:52.086Z,10.23
2024-02-29T04:12:53.608Z,11.40
2024-02-29T04:13:55.819Z,10.77
2024-02-29T04:14:57.695Z,10.95
2024-02-29T04:15:59.211Z,10.52
2024-02-29T04:17:02.045Z,10.73
2024-02-29T04:18:05.195Z,10.73
2024-02-29T04:19:07.097Z,11.75
2024-02-29T04:20:09.899Z,10.65
2024-02-29T04:21:11.623Z,11.07
2024-02-29T04:22:15.810Z,12.00
2024-02-29T04:23:17.530Z,11.23
2024-02-29T04:24:19.270Z,10.55
2024-02-29T04:25:24.010Z,10.25
2024-02-29T04:26:25.568Z,10.18
2024-02-29T04:27:27.125Z,12.13
2024-02-29T04:28:28.661Z,10.63
2024-02-29T04:29:30.357Z,11.32
2024-02-29T04:30:33.102Z,11.25
2024-02-29T04:31:34.710Z,10.52
2024-02-29T04:32:39.376Z,10.65
2024-02-29T04:33:41.642Z,11.38
2024-02-29T04:34:43.261Z,10.70
2024-02-29T04:35:44.798Z,11.48
2024-02-29T04:36:46.317Z,11.23
2024-02-29T04:37:48.914Z,10.80
2024-02-29T04:38:51.237Z,9.25
2024-02-29T04:39:52.877Z,10.52
2024-02-29T04:40:55.826Z,10.48
2024-02-29T04:41:57.459Z,10.13
2024-02-29T04:42:59.461Z,10.50
2024-02-29T04:44:01.084Z,10.48
2024-02-29T04:45:02.759Z,10.10
2024-02-29T04:46:04.467Z,10.77
2024-02-29T04:47:07.940Z,10.43
2024-02-29T04:48:09.538Z,10.73
2024-02-29T04:49:11.200Z,10.07
2024-02-29T04:50:12.778Z,10.80
2024-02-29T04:51:14.264Z,10.55
2024-02-29T04:52:16.118Z,11.13
2024-02-29T04:53:17.773Z,10.18
2024-02-29T04:54:19.564Z,10.35
2024-02-29T04:55:21.158Z,11.15
2024-02-29T04:56:22.813Z,11.18
2024-02-29T04:57:24.682Z,9.65
2024-02-29T04:58:26.154Z,11.35
2024-02-29T04:59:28.158Z,11.02
2024-02-29T05:00:29.673Z,10.43
2024-02-29T05:01:31.400Z,11.07
2024-02-29T05:02:34.851Z,11.32
2024-02-29T05:03:36.483Z,11.13
2024-02-29T05:04:38.639Z,11.57
2024-02-29T05:05:40.132Z,11.15
2024-02-29T05:06:41.634Z,11.85
2024-02-29T05:07:45.349Z,10.90
2024-02-29T05:08:46.870Z,10.55
2024-02-29T05:09:48.415Z,11.23
2024-02-29T05:10:49.985Z,10.65
2024-02-29T05:11:51.556Z,10.52
2024-02-29T05:12:54.941Z,11.60
2024-02-29T05:13:57.200Z,11.38
2024-02-29T05:14:58.924Z,11.75
2024-02-29T05:16:00.427Z,10.75
2024-02-29T05:17:02.092Z,10.65
2024-02-29T05:18:04.556Z,12.20
2024-02-29T05:19:06.090Z,11.18
2024-02-29T05:20:08.084Z,11.52
2024-02-29T05:21:09.616Z,10.70
2024-02-29T05:22:11.187Z,9.57
2024-02-29T05:23:13.160Z,11.20
2024-02-29T05:24:14.678Z,11.68
2024-02-29T05:25:16.402Z,11.70
2024-02-29T05:26:18.776Z,10.50
2024-02-29T05:27:20.321Z,11.38
2024-02-29T05:28:21.943Z,11.05
2024-02-29T05:29:23.441Z,11.63
2024-02-29T05:30:26.525Z,10.80
2024-02-29T05:32:29.501Z,10.63
2024-02-29T05:33:31.545Z,10.65
2024-02-29T05:34:33.097Z,9.38
2024-02-29T05:35:35.068Z,10.98
2024-02-29T05:36:36.587Z,10.73
2024-02-29T05:37:38.124Z,10.18
2024-02-29T05:38:40.123Z,11.02
2024-02-29T05:39:41.859Z,11.15
2024-02-29T05:40:43.631Z,12.40
2024-02-29T05:41:45.215Z,9.43
2024-02-29T05:42:46.944Z,12.20
2024-02-29T05:43:49.064Z,11.93
2024-02-29T05:44:50.842Z,10.98
2024-02-29T05:45:52.593Z,11.70
2024-02-29T05:46:54.195Z,10.93
2024-02-29T05:47:55.730Z,10.52
2024-02-29T05:48:58.940Z,10.32
2024-02-29T05:50:00.514Z,11.15
2024-02-29T05:51:03.332Z,11.55
2024-02-29T05:52:05.110Z,11.20
2024-02-29T05:53:06.756Z,11.23
2024-02-29T05:54:08.671Z,10.45
2024-02-29T05:55:10.518Z,10.32
2024-02-29T05:56:14.752Z,11.27
2024-02-29T05:57:16.273Z,10.45
2024-02-29T05:58:19.383Z,10.35
2024-02-29T05:59:21.091Z,9.88
2024-02-29T06:00:25.389Z,10.27
2024-02-29T06:01:26.976Z,10.50
2024-02-29T06:02:28.877Z,9.98
2024-02-29T06:03:30.366Z,10.85
2024-02-29T06:04:31.880Z,9.25
2024-02-29T06:05:33.486Z,9.98
2024-02-29T06:06:35.608Z,10.40
2024-02-29T06:07:37.912Z,10.60
2024-02-29T06:08:39.894Z,9.32
2024-02-29T06:09:42.891Z,10.73
2024-02-29T06:11:49.641Z,12.35
2024-02-29T06:12:51.219Z,12.65
2024-02-29T06:13:53.108Z,12.57
2024-02-29T06:14:54.601Z,13.98
2024-02-29T06:15:56.430Z,11.85
2024-02-29T06:16:58.014Z,11.98
2024-02-29T06:17:59.556Z,10.60
2024-02-29T06:19:01.232Z,10.82
2024-02-29T06:20:05.004Z,11.00
2024-02-29T06:21:06.508Z,11.00
2024-02-29T06:22:08.299Z,11.63
2024-02-29T06:23:09.834Z,11.32
2024-02-29T06:24:11.727Z,10.32
2024-02-29T06:25:13.390Z,10.43
2024-02-29T06:26:15.429Z,10.13
2024-02-29T06:27:18.337Z,11.20
2024-02-29T06:28:24.100Z,10.90
2024-02-29T06:29:26.462Z,10.15
2024-02-29T06:30:33.461Z,10.60
2024-02-29T06:31:35.367Z,10.95
2024-02-29T06:32:36.979Z,10.68
2024-02-29T06:33:38.571Z,10.15
2024-02-29T06:34:40.152Z,10.90
2024-02-29T06:35:42.175Z,12.30
2024-02-29T06:36:44.103Z,12.05
2024-02-29T06:37:45.705Z,10.40
2024-02-29T06:38:47.189Z,10.15
2024-02-29T06:39:49.041Z,10.18
2024-02-29T06:40:50.585Z,10.02
2024-02-29T06:41:52.108Z,11.05
2024-02-29T06:42:53.819Z,10.52
2024-02-29T06:43:55.391Z,9.52
2024-02-29T06:44:57.104Z,10.45
2024-02-29T06:46:01.597Z,10.65
2024-02-29T06:47:03.133Z,10.88
2024-02-29T06:48:05.422Z,11.25
2024-02-29T06:49:07.544Z,10.05
2024-02-29T06:50:10.284Z,11.05
2024-02-29T06:51:11.783Z,10.65
2024-02-29T06:52:13.400Z,11.25
2024-02-29T06:53:14.999Z,10.38
2024-02-29T06:54:16.564Z,11.30
2024-02-29T06:55:18.117Z,11.70
2024-02-29T06:56:19.897Z,10.98
2024-02-29T06:57:21.393Z,10.88
2024-02-29T06:58:22.996Z,11.65
2024-02-29T06:59:24.540Z,12.02
2024-02-29T07:00:26.148Z,9.75
2024-02-29T07:01:28.124Z,11.90
2024-02-29T07:02:29.799Z,10.57
2024-02-29T07:03:31.367Z,11.63
2024-02-29T07:04:33.215Z,16.67
2024-02-29T07:05:36.770Z,12.65
2024-02-29T07:06:38.553Z,10.95
2024-02-29T07:07:40.106Z,11.18
2024-02-29T07:08:41.761Z,11.45
2024-02-29T07:09:44.079Z,10.57
2024-02-29T07:10:45.694Z,10.75
2024-02-29T07:11:47.209Z,12.02
2024-02-29T07:12:49.187Z,11.23
2024-02-29T07:13:52.009Z,12.95
2024-02-29T07:14:53.597Z,10.95
2024-02-29T07:15:56.060Z,12.13
2024-02-29T07:16:57.629Z,10.88
2024-02-29T07:17:59.206Z,11.75
2024-02-29T07:19:00.785Z,11.13
2024-02-29T07:20:02.640Z,11.27
2024-02-29T07:21:05.476Z,11.82
2024-02-29T07:22:07.099Z,11.45
2024-02-29T07:23:11.009Z,12.02
2024-02-29T07:24:12.521Z,11.48
2024-02-29T07:25:14.315Z,11.35
2024-02-29T07:26:15.889Z,10.95
2024-02-29T07:27:17.412Z,11.43
2024-02-29T07:28:18.966Z,10.43
2024-02-29T07:29:20.737Z,11.50
2024-02-29T07:30:22.654Z,11.18
2024-02-29T07:31:24.626Z,11.88
2024-02-29T07:32:28.579Z,10.38
2024-02-29T07:33:32.344Z,10.57
2024-02-29T07:34:35.399Z,10.32
2024-02-29T07:35:37.131Z,10.32
2024-02-29T07:36:38.704Z,9.77
2024-02-29T07:37:40.791Z,9.50
2024-02-29T07:38:43.011Z,9.93
2024-02-29T07:39:44.539Z,9.63
2024-02-29T07:40:46.595Z,10.20
2024-02-29T07:41:48.407Z,10.70
2024-02-29T07:42:50.170Z,10.07
2024-02-29T07:43:51.749Z,10.98
2024-02-29T07:44:53.543Z,11.70
2024-02-29T07:45:55.125Z,11.00
2024-02-29T07:46:56.788Z,9.65
2024-02-29T07:47:58.817Z,9.18
2024-02-29T07:49:00.487Z,10.00
2024-02-29T07:50:04.463Z,8.50
2024-02-29T07:51:06.429Z,10.63
2024-02-29T07:52:08.036Z,10.02
2024-02-29T07:53:09.689Z,9.95
2024-02-29T07:54:11.217Z,11.13
2024-02-29T07:55:16.017Z,9.80
2024-02-29T07:56:17.992Z,9.55
2024-02-29T07:57:19.497Z,10.45
2024-02-29T07:58:21.150Z,9.27
2024-02-29T07:59:24.492Z,9.23
2024-02-29T08:00:26.469Z,8.63
2024-02-29T08:01:28.835Z,10.13
2024-02-29T08:02:30.373Z,9.13
2024-02-29T08:03:33.518Z,9.93
2024-02-29T08:04:35.236Z,9.95
2024-02-29T08:05:36.851Z,9.48
2024-02-29T08:06:38.364Z,9.93
2024-02-29T08:07:40.350Z,8.77
2024-02-29T08:08:42.591Z,9.43
2024-02-29T08:09:44.386Z,9.00
2024-02-29T08:10:46.281Z,9.98
2024-02-29T08:11:48.267Z,9.38
2024-02-29T08:12:49.897Z,10.82
2024-02-29T08:13:51.430Z,9.35
2024-02-29T08:14:53.028Z,9.85
2024-02-29T08:15:55.022Z,11.32
2024-02-29T08:16:56.577Z,9.80
2024-02-29T08:17:59.255Z,9.23
2024-02-29T08:19:00.916Z,9.32
2024-02-29T08:20:02.889Z,10.73
2024-02-29T08:21:05.242Z,10.05
2024-02-29T08:22:06.846Z,9.55
2024-02-29T08:23:08.396Z,9.23
2024-02-29T08:24:09.893Z,10.10
2024-02-29T08:25:11.731Z,9.30
2024-02-29T08:26:13.382Z,8.98
2024-02-29T08:27:14.973Z,9.50
2024-02-29T08:28:16.954Z,9.88
2024-02-29T08:29:19.261Z,9.20
2024-02-29T08:30:20.790Z,10.13
2024-02-29T08:31:22.425Z,9.55
2024-02-29T08:32:24.044Z,8.93
2024-02-29T08:33:25.561Z,9.75
2024-02-29T08:34:27.168Z,9.85
2024-02-29T08:35:28.814Z,9.45
2024-02-29T08:36:30.716Z,10.02
2024-02-29T08:37:32.234Z,9.38
2024-02-29T08:38:35.535Z,8.75
2024-02-29T08:39:39.500Z,9.65
2024-02-29T08:40:40.996Z,9.00
2024-02-29T08:41:42.960Z,9.30
2024-02-29T08:42:44.463Z,9.43
2024-02-29T08:43:45.966Z,9.43
2024-02-29T08:44:48.542Z,8.70
2024-02-29T08:45:51.089Z,9.35
2024-02-29T08:46:53.292Z,9.52
2024-02-29T08:47:54.864Z,9.70
2024-02-29T08:48:56.422Z,9.40
2024-02-29T08:49:57.987Z,9.57
2024-02-29T08:50:59.497Z,9.68
2024-02-29T08:52:01.128Z,10.13
2024-02-29T08:53:02.678Z,9.55
2024-02-29T08:54:09.774Z,9.45
2024-02-29T08:55:12.212Z,9.65
2024-02-29T08:56:14.321Z,9.40
2024-02-29T08:57:15.944Z,8.85
2024-02-29T08:58:17.545Z,8.95
2024-02-29T08:59:19.169Z,10.73
2024-02-29T09:00:20.798Z,9.65
2024-02-29T09:01:22.467Z,9.73
2024-02-29T09:02:24.235Z,9.15
2024-02-29T09:03:26.412Z,9.63
2024-02-29T09:04:28.048Z,9.48
2024-02-29T09:05:29.591Z,9.68
2024-02-29T09:06:40.806Z,10.20
2024-02-29T09:07:43.464Z,9.27
2024-02-29T09:08:45.041Z,9.85
2024-02-29T09:09:46.620Z,9.90
2024-02-29T09:10:48.219Z,9.38
2024-02-29T09:11:49.935Z,9.70
2024-02-29T09:12:51.447Z,9.85
2024-02-29T09:13:53.003Z,9.50
2024-02-29T09:14:54.498Z,10.15
2024-02-29T09:15:56.137Z,9.18
2024-02-29T09:16:58.065Z,9.30
2024-02-29T09:18:00.630Z,9.77
2024-02-29T09:19:04.329Z,10.02
2024-02-29T09:20:07.608Z,9.48
2024-02-29T09:21:09.435Z,8.90
2024-02-29T09:22:11.129Z,9.45
2024-02-29T09:23:12.649Z,10.32
2024-02-29T09:24:15.954Z,9.55
2024-02-29T09:25:20.834Z,9.32
2024-02-29T09:26:22.398Z,9.60
2024-02-29T09:27:23.952Z,9.52
2024-02-29T09:28:25.553Z,9.65
2024-02-29T09:29:27.996Z,9.65
2024-02-29T09:30:30.467Z,9.27
2024-02-29T09:31:32.897Z,9.35
2024-02-29T09:32:34.428Z,9.98
2024-02-29T09:33:35.971Z,9.25
2024-02-29T09:34:41.736Z,9.65
2024-02-29T09:35:48.248Z,11.68
2024-02-29T09:36:50.110Z,9.95
2024-02-29T09:37:51.660Z,9.95
2024-02-29T09:38:53.172Z,9.85
2024-02-29T09:39:54.807Z,9.55
2024-02-29T09:41:03.312Z,8.95
2024-02-29T09:42:15.458Z,10.10
2024-02-29T09:43:18.444Z,9.60
2024-02-29T09:44:20.260Z,10.13
2024-02-29T09:45:25.370Z,10.05
2024-02-29T09:46:27.378Z,10.55
2024-02-29T09:47:29.435Z,10.50
2024-02-29T09:48:31.104Z,9.95
2024-02-29T09:49:32.996Z,9.65
2024-02-29T09:50:34.525Z,9.73
2024-02-29T09:51:36.844Z,9.88
2024-02-29T09:52:39.830Z,10.05
2024-02-29T09:55:44.570Z,9.00
2024-02-29T09:56:49.132Z,9.90
2024-02-29T09:57:50.889Z,9.07
2024-02-29T09:58:52.777Z,10.63
2024-02-29T09:59:54.825Z,10.73
2024-02-29T10:00:57.073Z,9.75
2024-02-29T10:01:59.206Z,10.77
2024-02-29T10:03:02.045Z,10.25
2024-02-29T10:04:04.578Z,9.77
2024-02-29T10:05:10.409Z,11.07
2024-02-29T10:06:12.506Z,11.13
2024-02-29T10:07:16.183Z,9.95
2024-02-29T10:08:18.049Z,10.73
2024-02-29T10:09:19.651Z,10.30
2024-02-29T10:10:22.380Z,9.85
2024-02-29T10:11:31.088Z,10.52
2024-02-29T10:12:32.694Z,13.25
2024-02-29T10:13:38.755Z,11.48
2024-02-29T10:14:40.400Z,13.70
2024-02-29T10:15:42.712Z,11.50
2024-02-29T10:16:44.552Z,9.93
2024-02-29T10:17:46.763Z,9.88
2024-02-29T10:18:48.444Z,10.25
2024-02-29T10:19:53.396Z,11.20
2024-02-29T10:20:54.962Z,10.27
2024-02-29T10:21:58.022Z,10.68
2024-02-29T10:22:59.642Z,9.70
2024-02-29T10:24:01.236Z,9.85
2024-02-29T10:25:03.624Z,10.25
2024-02-29T10:26:06.039Z,10.20
2024-02-29T10:27:07.790Z,9.75
2024-02-29T10:28:13.874Z,9.38
2024-02-29T10:29:17.830Z,9.77
2024-02-29T10:30:19.848Z,11.43
2024-02-29T10:31:21.569Z,9.77
2024-02-29T10:32:23.106Z,10.43
2024-02-29T10:33:27.583Z,10.88
2024-02-29T10:34:29.418Z,10.25
2024-02-29T10:35:31.597Z,10.00
2024-02-29T10:36:33.725Z,9.90
2024-02-29T10:37:35.257Z,10.02
2024-02-29T10:38:38.473Z,9.57
2024-02-29T10:39:41.750Z,10.68
2024-02-29T10:40:43.604Z,11.18
2024-02-29T10:41:50.448Z,10.32
2024-02-29T10:42:55.469Z,10.25
2024-02-29T10:44:01.760Z,9.77
2024-02-29T10:45:04.086Z,10.85
2024-02-29T10:46:06.784Z,10.55
2024-02-29T10:47:09.681Z,10.98
2024-02-29T10:48:23.176Z,10.27
2024-02-29T10:49:31.441Z,10.20
2024-02-29T10:50:35.151Z,9.80
2024-02-29T10:51:46.240Z,10.25
2024-02-29T10:52:51.148Z,10.52
2024-02-29T10:54:03.764Z,10.75
2024-02-29T10:55:12.277Z,9.98
2024-02-29T10:56:23.427Z,9.68
2024-02-29T10:57:27.676Z,10.65
2024-02-29T10:58:37.874Z,9.63
2024-02-29T10:59:42.989Z,10.73
2024-02-29T11:00:44.785Z,10.75
2024-02-29T11:01:48.090Z,10.70
2024-02-29T11:02:50.131Z,9.77
2024-02-29T11:03:51.684Z,10.43
2024-02-29T11:04:54.116Z,10.65
2024-02-29T11:05:55.975Z,10.88
2024-02-29T11:06:57.953Z,10.93
2024-02-29T11:07:59.701Z,9.65
2024-02-29T11:09:03.204Z,9.32
2024-02-29T11:10:05.735Z,11.15
2024-02-29T11:11:13.140Z,9.88
2024-02-29T11:12:17.151Z,9.75
2024-02-29T11:13:20.328Z,9.95
2024-02-29T11:14:22.156Z,10.50
2024-02-29T11:15:27.714Z,9.93
2024-02-29T11:16:29.517Z,9.75
2024-02-29T11:17:32.472Z,9.60
2024-02-29T11:18:36.727Z,10.52
2024-02-29T11:19:47.457Z,10.30
2024-02-29T11:21:06.521Z,10.23
2024-02-29T11:22:14.562Z,10.63
2024-02-29T11:23:21.096Z,10.10
2024-02-29T11:24:23.825Z,9.13
2024-02-29T11:25:30.340Z,10.48
2024-02-29T11:26:33.763Z,9.45
2024-02-29T11:27:35.632Z,9.57
2024-02-29T11:28:43.346Z,11.20
2024-02-29T11:29:51.182Z,9.55
2024-02-29T11:31:08.094Z,9.45
2024-02-29T11:32:10.589Z,9.48
2024-02-29T11:33:13.221Z,8.32
2024-02-29T11:34:18.170Z,9.23
2024-02-29T11:35:19.953Z,9.88
2024-02-29T11:36:22.015Z,9.20
2024-02-29T11:37:26.688Z,10.10
2024-02-29T11:38:36.121Z,10.55
2024-02-29T11:39:41.632Z,8.45
2024-02-29T11:40:43.918Z,10.95
2024-02-29T11:41:45.559Z,10.30
2024-02-29T11:42:47.462Z,9.30
2024-02-29T11:43:50.413Z,9.43
2024-02-29T11:44:52.109Z,9.32
2024-02-29T11:45:53.625Z,9.65
2024-02-29T11:46:55.500Z,10.13
2024-02-29T11:47:57.366Z,9.98
2024-02-29T11:48:59.356Z,9.35
2024-02-29T11:50:01.858Z,8.70
2024-02-29T11:51:04.404Z,8.95
2024-02-29T11:52:06.021Z,8.75
2024-02-29T11:53:08.039Z,8.82
2024-02-29T11:54:10.850Z,14.05
2024-02-29T11:55:12.758Z,11.73
2024-02-29T11:56:16.585Z,9.68
2024-02-29T11:57:18.544Z,9.82
2024-02-29T11:58:21.667Z,9.90
2024-02-29T11:59:24.450Z,9.35
2024-02-29T12:00:28.775Z,12.88
2024-02-29T12:01:32.607Z,11.90
2024-02-29T12:02:35.999Z,11.23
2024-02-29T12:03:37.794Z,9.63
2024-02-29T12:04:39.439Z,10.05
2024-02-29T12:05:41.078Z,10.70
2024-02-29T12:06:45.019Z,10.10
2024-02-29T12:07:48.149Z,10.20
2024-02-29T12:08:50.019Z,10.00
2024-02-29T12:09:51.651Z,9.27
2024-02-29T12:10:56.449Z,9.23
2024-02-29T12:11:58.677Z,9.18
2024-02-29T12:13:00.570Z,9.15
2024-02-29T12:14:02.383Z,9.55
2024-02-29T12:15:06.411Z,8.80
2024-02-29T12:16:08.883Z,8.45
2024-02-29T12:17:10.451Z,8.52
2024-02-29T12:18:12.023Z,9.43
2024-02-29T12:19:17.483Z,8.82
2024-02-29T12:20:19.112Z,9.73
2024-02-29T12:21:20.635Z,8.73
2024-02-29T12:22:22.496Z,8.45
2024-02-29T12:23:25.037Z,8.75
2024-02-29T12:24:27.304Z,9.20
2024-02-29T12:25:29.326Z,8.43
2024-02-29T12:26:30.952Z,8.65
2024-02-29T12:27:32.463Z,8.23
2024-02-29T12:28:34.090Z,9.77
2024-02-29T12:29:35.912Z,10.43
2024-02-29T12:30:37.710Z,8.80
2024-02-29T12:31:41.687Z,9.95
2024-02-29T12:32:44.404Z,9.98
2024-02-29T12:33:47.718Z,9.20
2024-02-29T12:34:49.352Z,8.93
2024-02-29T12:35:52.329Z,9.70
2024-02-29T12:36:57.026Z,9.05
2024-02-29T12:37:59.397Z,9.35
2024-02-29T12:39:02.230Z,9.32
2024-02-29T12:40:05.601Z,9.48
2024-02-29T12:41:08.102Z,8.75
2024-02-29T12:42:09.985Z,9.35
2024-02-29T12:43:18.256Z,9.35
2024-02-29T12:44:19.974Z,9.00
2024-02-29T12:45:22.046Z,8.02
2024-02-29T12:46:23.643Z,9.13
2024-02-29T12:47:25.256Z,8.10
2024-02-29T12:48:26.744Z,9.15
2024-02-29T12:49:28.350Z,8.88
2024-02-29T12:50:30.436Z,8.98
2024-02-29T12:51:31.948Z,8.25
2024-02-29T12:52:33.541Z,8.30
2024-02-29T12:53:35.337Z,7.93
2024-02-29T12:54:37.771Z,9.02
2024-02-29T12:55:39.368Z,9.40
2024-02-29T12:56:40.997Z,9.45
2024-02-29T12:57:42.589Z,8.15
2024-02-29T12:58:48.311Z,8.82
2024-02-29T12:59:49.950Z,10.20
2024-02-29T13:00:51.533Z,9.77
2024-02-29T13:01:54.510Z,9.50
2024-02-29T13:02:56.274Z,9.57
2024-02-29T13:03:57.900Z,8.93
2024-02-29T13:04:59.435Z,8.60
2024-02-29T13:06:01.143Z,9.60
2024-02-29T13:07:02.808Z,9.15
2024-02-29T13:08:07.440Z,8.75
2024-02-29T13:09:09.041Z,8.32
2024-02-29T13:10:10.751Z,9.07
2024-02-29T13:11:12.414Z,8.93
2024-02-29T13:12:14.042Z,9.50
2024-02-29T13:13:15.826Z,8.88
2024-02-29T13:14:17.464Z,9.73
2024-02-29T13:15:19.308Z,8.63
2024-02-29T13:16:20.869Z,8.40
2024-02-29T13:17:22.355Z,8.65
2024-02-29T13:18:24.369Z,8.73
2024-02-29T13:19:25.942Z,8.35
2024-02-29T13:20:27.618Z,8.90
2024-02-29T13:21:29.246Z,8.80
2024-02-29T13:22:30.723Z,8.38
2024-02-29T13:23:32.308Z,9.60
2024-02-29T13:24:33.942Z,8.48
2024-02-29T13:25:36.573Z,8.93
2024-02-29T13:26:38.534Z,8.88
2024-02-29T13:27:40.141Z,9.15
2024-02-29T13:28:41.660Z,8.43
2024-02-29T13:29:43.201Z,9.05
2024-02-29T13:30:44.815Z,8.35
2024-02-29T13:31:46.365Z,8.43
2024-02-29T13:32:48.083Z,8.10
2024-02-29T13:33:49.609Z,8.68
2024-02-29T13:34:51.954Z,9.13
2024-02-29T13:35:53.566Z,9.45
2024-02-29T13:36:55.291Z,8.48
2024-02-29T13:37:56.814Z,8.80
2024-02-29T13:38:58.583Z,8.40
2024-02-29T13:40:00.233Z,8.18
2024-02-29T13:41:02.700Z,8.40
2024-02-29T13:42:06.583Z,7.95
2024-02-29T13:43:08.473Z,8.40
2024-02-29T13:44:10.046Z,8.02
2024-02-29T13:45:11.580Z,8.38